Time;durP1;ratioP1;P1;durP2;ratioP2;P2;SDS_P1;SDS_P2;PMS_P1;PMS_P2;Temp;Humidity;BMP_temperature;BMP_pressure;BME280_temperature;BME280_humidity;BME280_pressure;Samples;Min_cycle;Max_cycle;Signal;HPM_P1;HPM_P2
2021/11/07 00:00:00;;;;;;;4.28;1.63;;;9.70;99.90;;;;;;4981176;28;20114;-70
2021/11/07 00:05:02;;;;;;;4.72;2.05;;;9.80;99.90;;;;;;4981006;28;20023;-70
2021/11/07 00:12:54;;;;;;;2.88;1.50;;;9.80;99.90;;;;;;4981447;28;20030;-70
2021/11/07 00:15:23;;;;;;;3.53;1.40;;;9.80;99.90;;;;;;4981306;28;20083;-70
2021/11/07 00:17:54;;;;;;;3.22;1.40;;;9.80;99.90;;;;;;4981679;28;20098;-70
2021/11/07 00:20:29;;;;;;;2.92;1.52;;;9.80;99.90;;;;;;4981429;28;20030;-70
2021/11/07 00:25:40;;;;;;;2.78;1.55;;;9.80;99.90;;;;;;4980379;28;20031;-70
2021/11/07 00:28:23;;;;;;;2.72;1.65;;;9.80;99.90;;;;;;4979364;28;20046;-70
2021/11/07 00:34:02;;;;;;;3.63;1.50;;;9.80;99.90;;;;;;4980182;28;20030;-70
2021/11/07 00:36:28;;;;;;;2.67;1.65;;;9.80;99.90;;;;;;4979832;28;20023;-70
2021/11/07 00:39:09;;;;;;;4.97;1.55;;;9.80;99.90;;;;;;4979941;28;20014;-70
2021/11/07 00:44:16;;;;;;;3.25;1.40;;;9.70;99.90;;;;;;4979566;28;20047;-70
2021/11/07 00:46:55;;;;;;;3.40;1.30;;;9.70;99.90;;;;;;4980528;28;20055;-70
2021/11/07 00:52:18;;;;;;;4.53;1.25;;;9.70;99.90;;;;;;4980642;28;20031;-70
2021/11/07 01:00:13;;;;;;;1.80;1.10;;;9.50;99.90;;;;;;4980469;28;20027;-70
2021/11/07 01:02:42;;;;;;;4.53;1.70;;;9.50;99.90;;;;;;4981123;28;20102;-70
2021/11/07 01:05:21;;;;;;;2.92;1.45;;;9.40;99.90;;;;;;4980281;28;20061;-70
2021/11/07 01:07:49;;;;;;;4.90;1.35;;;9.30;99.90;;;;;;4979824;28;20023;-70
2021/11/07 01:10:16;;;;;;;5.78;1.55;;;9.30;99.90;;;;;;4979328;28;20030;-70
2021/11/07 01:12:44;;;;;;;3.42;1.52;;;9.20;99.90;;;;;;4979285;28;20093;-70
2021/11/07 01:15:12;;;;;;;2.75;1.58;;;9.20;99.90;;;;;;4961702;28;20374;-70
2021/11/07 01:17:40;;;;;;;4.38;2.22;;;9.20;99.90;;;;;;4979942;28;20101;-70
2021/11/07 01:20:13;;;;;;;3.17;1.63;;;9.10;99.90;;;;;;4979764;28;20022;-70
2021/11/07 01:25:09;;;;;;;4.85;1.45;;;9.10;99.90;;;;;;4979126;28;20023;-70
2021/11/07 01:27:40;;;;;;;3.08;1.55;;;9.10;99.90;;;;;;4979029;28;20101;-70
2021/11/07 01:30:15;;;;;;;2.15;1.20;;;9.00;99.90;;;;;;4980066;28;20019;-70
2021/11/07 01:32:51;;;;;;;4.78;1.48;;;9.00;99.90;;;;;;4979780;28;20027;-70
2021/11/07 01:35:27;;;;;;;3.40;1.85;;;8.90;99.90;;;;;;4979828;28;20027;-70
2021/11/07 01:38:11;;;;;;;3.92;1.85;;;8.90;99.90;;;;;;4980261;28;20086;-70
2021/11/07 01:43:25;;;;;;;3.80;1.58;;;8.70;99.90;;;;;;4979564;28;20054;-70
2021/11/07 01:46:02;;;;;;;3.17;1.70;;;8.70;99.90;;;;;;4980157;28;20031;-70
2021/11/07 01:48:33;;;;;;;6.05;1.65;;;8.70;99.90;;;;;;4980010;28;20438;-70
2021/11/07 01:51:02;;;;;;;2.80;1.60;;;8.70;99.90;;;;;;4961495;28;20121;-70
2021/11/07 01:53:33;;;;;;;5.32;2.92;;;8.70;99.90;;;;;;4977765;28;20031;-70
2021/11/07 01:56:07;;;;;;;5.82;2.05;;;8.70;99.90;;;;;;4978575;28;20312;-70
2021/11/07 01:58:36;;;;;;;6.47;1.65;;;8.70;99.90;;;;;;4978477;28;20415;-70
2021/11/07 02:01:04;;;;;;;4.65;1.77;;;8.70;99.90;;;;;;4978862;28;20110;-70
2021/11/07 02:03:33;;;;;;;5.35;2.00;;;8.70;99.90;;;;;;4978608;28;20029;-70
2021/11/07 02:06:01;;;;;;;3.10;1.70;;;8.60;99.90;;;;;;4979025;28;20034;-70
2021/11/07 02:08:28;;;;;;;5.18;2.13;;;8.50;99.90;;;;;;4961120;28;20027;-70
2021/11/07 02:10:57;;;;;;;3.42;2.17;;;8.50;99.90;;;;;;4978261;28;20023;-70
2021/11/07 02:13:26;;;;;;;3.58;1.80;;;8.50;99.90;;;;;;4978632;28;20324;-70
2021/11/07 02:15:55;;;;;;;4.88;2.13;;;8.50;99.90;;;;;;4979796;28;20023;-70
2021/11/07 02:18:23;;;;;;;4.95;2.35;;;8.50;99.90;;;;;;4961767;28;20030;-70
2021/11/07 02:20:50;;;;;;;3.60;2.53;;;8.50;99.90;;;;;;4978935;28;20346;-70
2021/11/07 02:23:23;;;;;;;5.07;2.17;;;8.50;99.90;;;;;;4961817;28;20057;-70
2021/11/07 02:25:54;;;;;;;3.60;1.75;;;8.50;99.90;;;;;;4978943;28;20420;-70
2021/11/07 02:28:30;;;;;;;2.20;1.38;;;8.50;99.90;;;;;;4978805;28;20023;-70
2021/11/07 02:30:57;;;;;;;2.88;1.85;;;8.50;99.90;;;;;;4979410;28;20458;-70
2021/11/07 02:33:26;;;;;;;2.75;1.42;;;8.50;99.90;;;;;;4978593;28;20497;-70
2021/11/07 02:35:53;;;;;;;2.92;1.70;;;8.50;99.90;;;;;;4978437;28;20026;-70
2021/11/07 02:38:21;;;;;;;5.45;1.70;;;8.50;99.90;;;;;;4960591;28;20045;-70
2021/11/07 02:40:48;;;;;;;2.58;1.45;;;8.50;99.90;;;;;;4978001;28;20026;-70
2021/11/07 02:43:16;;;;;;;4.03;1.48;;;8.50;99.90;;;;;;4977190;28;20352;-71
2021/11/07 02:45:43;;;;;;;3.80;1.25;;;8.50;99.90;;;;;;4977730;28;20423;-70
2021/11/07 02:48:13;;;;;;;1.52;0.95;;;8.50;99.90;;;;;;4960808;28;20058;-70
2021/11/07 02:50:41;;;;;;;1.42;0.75;;;8.50;99.90;;;;;;4977841;28;20327;-70
2021/11/07 02:53:08;;;;;;;1.90;1.10;;;8.50;99.90;;;;;;4977322;28;20019;-70
2021/11/07 02:55:35;;;;;;;1.60;0.88;;;8.60;99.90;;;;;;4960772;28;20034;-70
2021/11/07 02:58:04;;;;;;;2.25;1.15;;;8.60;99.90;;;;;;4978741;28;20029;-70
2021/11/07 03:00:33;;;;;;;3.42;1.10;;;8.60;99.90;;;;;;4978840;28;20118;-70
2021/11/07 03:03:01;;;;;;;1.60;1.13;;;8.60;99.90;;;;;;4978371;28;20093;-70
2021/11/07 03:05:31;;;;;;;2.33;1.02;;;8.60;99.90;;;;;;4978494;28;20420;-70
2021/11/07 03:07:59;;;;;;;1.45;0.82;;;8.60;99.90;;;;;;4978467;28;20031;-70
2021/11/07 03:10:30;;;;;;;1.63;1.00;;;8.60;99.90;;;;;;4979110;28;20031;-70
2021/11/07 03:13:12;;;;;;;2.13;0.98;;;8.60;99.90;;;;;;4978666;28;20026;-70
2021/11/07 03:15:40;;;;;;;1.20;0.70;;;8.60;99.90;;;;;;4978693;28;20054;-70
2021/11/07 03:18:12;;;;;;;2.42;1.10;;;8.60;99.90;;;;;;4977361;28;20106;-70
2021/11/07 03:20:41;;;;;;;3.55;1.27;;;8.60;99.90;;;;;;4977597;28;20027;-70
2021/11/07 03:23:09;;;;;;;2.15;1.00;;;8.60;99.90;;;;;;4977324;28;20154;-70
2021/11/07 03:25:47;;;;;;;2.25;1.15;;;8.70;99.90;;;;;;4977682;28;20102;-70
2021/11/07 03:28:15;;;;;;;3.50;1.05;;;8.70;99.90;;;;;;4977634;28;20023;-70
2021/11/07 03:30:56;;;;;;;1.40;1.00;;;8.70;99.90;;;;;;4977809;28;20022;-70
2021/11/07 03:33:39;;;;;;;1.20;0.77;;;8.70;99.90;;;;;;4977790;28;20019;-70
2021/11/07 03:36:08;;;;;;;1.58;0.98;;;8.70;99.90;;;;;;4977830;28;20311;-70
2021/11/07 03:38:36;;;;;;;1.80;1.10;;;8.70;99.90;;;;;;4978183;28;20046;-70
2021/11/07 03:41:04;;;;;;;1.50;0.90;;;8.70;99.90;;;;;;4978634;28;20014;-70
2021/11/07 03:43:32;;;;;;;2.05;1.05;;;8.70;99.90;;;;;;4957660;28;20043;-70
2021/11/07 03:46:00;;;;;;;1.58;0.98;;;8.70;99.90;;;;;;4957831;29;20034;-70
2021/11/07 03:48:27;;;;;;;0.98;0.68;;;8.70;99.90;;;;;;4958827;28;20511;-70
2021/11/07 03:50:57;;;;;;;3.78;0.95;;;8.70;99.90;;;;;;4958974;29;20078;-70
2021/11/07 03:53:25;;;;;;;3.10;1.00;;;8.70;99.90;;;;;;4958993;28;20031;-70
2021/11/07 03:55:52;;;;;;;2.30;1.10;;;8.70;99.90;;;;;;4956382;29;20024;-70
2021/11/07 03:58:20;;;;;;;4.10;1.65;;;8.70;99.90;;;;;;4958601;28;20026;-70
2021/11/07 04:00:47;;;;;;;2.58;1.33;;;8.70;99.90;;;;;;4957842;28;20015;-70
2021/11/07 04:03:15;;;;;;;3.10;1.48;;;8.70;99.90;;;;;;4957353;28;20035;-70
2021/11/07 04:05:43;;;;;;;2.20;1.48;;;8.70;99.90;;;;;;4961673;28;20023;-70
2021/11/07 04:08:10;;;;;;;2.95;2.00;;;8.70;99.90;;;;;;4961715;28;20023;-70
2021/11/07 04:10:37;;;;;;;2.70;1.85;;;8.70;99.90;;;;;;4961190;29;20324;-70
2021/11/07 04:13:06;;;;;;;3.28;2.33;;;8.70;99.90;;;;;;4960005;29;20085;-70
2021/11/07 04:15:34;;;;;;;2.35;1.58;;;8.80;99.90;;;;;;4961162;28;20420;-70
2021/11/07 04:18:03;;;;;;;2.97;1.98;;;8.80;99.90;;;;;;4960978;28;20093;-70
2021/11/07 04:20:30;;;;;;;3.75;2.70;;;8.80;99.90;;;;;;4961972;28;20110;-70
2021/11/07 04:22:58;;;;;;;3.72;2.75;;;8.80;99.90;;;;;;4960642;29;20031;-70
2021/11/07 04:25:25;;;;;;;5.70;2.50;;;8.80;99.90;;;;;;4961902;29;20024;-70
2021/11/07 04:27:53;;;;;;;3.88;2.45;;;8.80;99.90;;;;;;4961776;28;20344;-70
2021/11/07 04:30:20;;;;;;;3.70;2.35;;;8.80;99.90;;;;;;4961226;29;20027;-70
2021/11/07 04:32:48;;;;;;;5.50;2.83;;;8.80;99.90;;;;;;4960537;28;20117;-70
2021/11/07 04:35:15;;;;;;;4.55;2.65;;;8.90;99.90;;;;;;4961989;28;20023;-70
2021/11/07 04:37:44;;;;;;;3.58;2.38;;;8.90;99.90;;;;;;4962102;28;20051;-70
2021/11/07 04:40:14;;;;;;;4.82;2.33;;;8.90;99.90;;;;;;4961808;28;20023;-70
2021/11/07 04:42:46;;;;;;;5.47;3.08;;;8.90;99.90;;;;;;4960815;28;20324;-70
2021/11/07 04:45:14;;;;;;;5.90;3.10;;;8.90;99.90;;;;;;4959562;29;20043;-70
2021/11/07 04:47:41;;;;;;;4.97;3.10;;;8.80;99.90;;;;;;4960498;28;20030;-70
2021/11/07 04:50:11;;;;;;;5.38;3.78;;;8.80;99.90;;;;;;4960650;28;20019;-70
2021/11/07 04:52:39;;;;;;;6.05;3.65;;;8.80;99.90;;;;;;4960435;28;20320;-70
2021/11/07 04:55:08;;;;;;;5.78;3.55;;;8.80;99.90;;;;;;4960659;28;20023;-70
2021/11/07 04:57:45;;;;;;;9.25;3.95;;;8.80;99.90;;;;;;4960404;28;20078;-70
2021/11/07 05:00:18;;;;;;;7.65;4.05;;;8.80;99.90;;;;;;4960802;28;20023;-70
2021/11/07 05:02:47;;;;;;;7.82;3.90;;;8.80;99.90;;;;;;4960728;28;20031;-70
2021/11/07 05:05:16;;;;;;;7.95;4.28;;;8.80;99.90;;;;;;4961377;28;20019;-70
2021/11/07 05:07:44;;;;;;;6.00;3.83;;;8.80;99.90;;;;;;4959991;29;20309;-70
2021/11/07 05:10:12;;;;;;;5.13;4.22;;;8.80;99.90;;;;;;4961142;28;20324;-70
2021/11/07 05:12:40;;;;;;;7.45;4.75;;;8.80;99.90;;;;;;4961124;28;20041;-70
2021/11/07 05:15:07;;;;;;;8.80;4.53;;;8.80;99.90;;;;;;4960210;28;20031;-70
2021/11/07 05:17:35;;;;;;;7.90;4.30;;;8.80;99.90;;;;;;4961422;28;20083;-70
2021/11/07 05:20:03;;;;;;;6.70;4.28;;;8.90;99.90;;;;;;4960800;28;20135;-70
2021/11/07 05:22:31;;;;;;;7.43;3.67;;;8.90;99.90;;;;;;4959497;29;20031;-70
2021/11/07 05:24:59;;;;;;;6.63;3.47;;;8.90;99.90;;;;;;4960382;28;20020;-70
2021/11/07 05:27:26;;;;;;;6.32;3.47;;;8.90;99.90;;;;;;4960334;28;20094;-70
2021/11/07 05:29:54;;;;;;;5.15;3.22;;;8.90;99.90;;;;;;4959728;28;20020;-70
2021/11/07 05:32:22;;;;;;;5.15;3.50;;;8.90;99.90;;;;;;4959869;28;20146;-70
2021/11/07 05:34:49;;;;;;;5.03;3.10;;;8.90;99.90;;;;;;4958514;28;20329;-70
2021/11/07 05:37:17;;;;;;;4.15;2.70;;;8.90;99.90;;;;;;4959557;28;20087;-70
2021/11/07 05:39:44;;;;;;;4.88;3.47;;;8.90;99.90;;;;;;4959574;28;20376;-70
2021/11/07 05:42:12;;;;;;;5.38;3.10;;;8.90;99.90;;;;;;4960117;28;20109;-70
2021/11/07 05:44:40;;;;;;;4.97;2.80;;;8.90;99.90;;;;;;4974282;28;20050;-70
2021/11/07 05:47:08;;;;;;;3.47;2.28;;;8.90;99.90;;;;;;4979566;28;20019;-70
2021/11/07 05:49:35;;;;;;;3.63;2.25;;;8.90;99.90;;;;;;4962329;28;20320;-70
2021/11/07 05:52:04;;;;;;;4.68;2.63;;;8.90;99.90;;;;;;4980221;28;20022;-70
2021/11/07 05:54:32;;;;;;;4.82;2.40;;;8.90;99.90;;;;;;4979448;28;20027;-71
2021/11/07 05:57:01;;;;;;;3.28;2.00;;;8.90;99.90;;;;;;4979123;28;20035;-70
2021/11/07 05:59:29;;;;;;;3.92;1.92;;;8.90;99.90;;;;;;4979894;28;20101;-70
2021/11/07 06:01:57;;;;;;;3.17;1.90;;;8.80;99.90;;;;;;4979478;28;20026;-69
2021/11/07 06:04:24;;;;;;;3.30;2.00;;;8.80;99.90;;;;;;4962033;28;20371;-69
2021/11/07 06:06:52;;;;;;;3.10;1.95;;;8.80;99.90;;;;;;4961383;28;20026;-70
2021/11/07 06:09:19;;;;;;;5.03;2.50;;;8.80;99.90;;;;;;4978207;28;20424;-70
2021/11/07 06:11:47;;;;;;;4.45;2.47;;;8.80;99.90;;;;;;4978238;28;20027;-70
2021/11/07 06:14:15;;;;;;;6.35;2.75;;;8.80;99.90;;;;;;4978701;28;20062;-70
2021/11/07 06:16:42;;;;;;;4.18;2.65;;;8.80;99.90;;;;;;4978143;28;20023;-70
2021/11/07 06:19:09;;;;;;;4.88;2.42;;;8.80;99.90;;;;;;4978597;28;20192;-70
2021/11/07 06:21:37;;;;;;;4.03;3.20;;;8.80;99.90;;;;;;4960984;28;20057;-70
2021/11/07 06:24:08;;;;;;;5.22;3.65;;;8.90;99.90;;;;;;4978554;28;20028;-70
2021/11/07 06:26:35;;;;;;;5.00;3.13;;;8.90;99.90;;;;;;4978143;28;20015;-70
2021/11/07 06:29:03;;;;;;;5.55;3.78;;;8.90;99.90;;;;;;4979157;28;20094;-70
2021/11/07 06:31:31;;;;;;;5.10;3.95;;;8.90;99.90;;;;;;4978837;28;20050;-70
2021/11/07 06:33:59;;;;;;;8.27;4.15;;;8.90;99.90;;;;;;4978635;28;20037;-70
2021/11/07 06:36:26;;;;;;;8.80;4.45;;;8.90;99.90;;;;;;4978972;28;20046;-69
2021/11/07 06:38:54;;;;;;;5.38;4.00;;;8.90;99.90;;;;;;4961737;28;20027;-70
2021/11/07 06:41:21;;;;;;;6.22;3.20;;;8.90;99.90;;;;;;4978699;28;20027;-72
2021/11/07 06:43:48;;;;;;;5.03;3.92;;;8.90;99.90;;;;;;4978440;28;20046;-70
2021/11/07 06:46:16;;;;;;;4.50;3.15;;;8.90;99.90;;;;;;4978867;28;20107;-70
2021/11/07 06:48:44;;;;;;;3.95;2.40;;;8.90;99.90;;;;;;4977992;28;20019;-70
2021/11/07 06:51:12;;;;;;;4.00;2.92;;;8.90;99.90;;;;;;4977588;28;20019;-70
2021/11/07 06:53:40;;;;;;;4.25;3.22;;;8.90;99.90;;;;;;4978228;28;20038;-70
2021/11/07 06:56:08;;;;;;;5.00;3.13;;;8.90;99.90;;;;;;4977732;28;20034;-69
2021/11/07 06:58:36;;;;;;;5.20;3.78;;;8.90;99.90;;;;;;4960481;28;20023;-73
2021/11/07 07:01:03;;;;;;;6.20;3.80;;;8.90;99.90;;;;;;4978080;28;20046;-72
2021/11/07 07:03:30;;;;;;;5.50;3.78;;;8.90;99.90;;;;;;4977448;28;20023;-72
2021/11/07 07:05:59;;;;;;;6.82;4.22;;;8.80;99.90;;;;;;4978008;28;20087;-73
2021/11/07 07:08:31;;;;;;;6.22;4.18;;;8.90;99.90;;;;;;4978096;28;20047;-73
2021/11/07 07:11:06;;;;;;;4.47;3.20;;;8.90;99.90;;;;;;4978149;28;20313;-72
2021/11/07 07:13:38;;;;;;;6.53;3.78;;;8.90;99.90;;;;;;4979175;28;20038;-72
2021/11/07 07:16:19;;;;;;;9.40;4.50;;;8.90;99.90;;;;;;4978864;28;20054;-73
2021/11/07 07:22:08;;;;;;;7.65;4.03;;;8.90;99.90;;;;;;4938251;29;20567;-73
2021/11/07 07:30:25;;;;;;;8.73;5.82;;;9.00;99.90;;;;;;4978581;28;20340;-72
2021/11/07 07:33:16;;;;;;;8.05;5.30;;;9.00;99.90;;;;;;4975519;28;20027;-72
2021/11/07 07:35:44;;;;;;;9.15;4.63;;;9.00;99.90;;;;;;4977326;28;20027;-73
2021/11/07 07:38:11;;;;;;;9.52;4.75;;;9.10;99.90;;;;;;4979500;28;20025;-73
2021/11/07 07:40:39;;;;;;;8.98;4.50;;;9.10;99.90;;;;;;4981097;28;20026;-74
2021/11/07 07:43:06;;;;;;;10.40;4.38;;;9.10;99.90;;;;;;4963463;28;20034;-74
2021/11/07 07:45:34;;;;;;;12.15;4.35;;;9.10;99.90;;;;;;4981115;28;20023;-76
2021/11/07 07:48:02;;;;;;;13.30;4.53;;;9.10;99.90;;;;;;4980838;28;20046;-73
2021/11/07 07:50:31;;;;;;;10.93;3.90;;;9.10;99.90;;;;;;4980877;28;20033;-75
2021/11/07 07:52:59;;;;;;;11.93;3.65;;;9.10;99.90;;;;;;4981094;28;20372;-75
2021/11/07 07:55:26;;;;;;;13.10;4.35;;;9.10;99.90;;;;;;4981750;28;20030;-74
2021/11/07 07:57:55;;;;;;;9.68;3.42;;;9.10;99.90;;;;;;4982152;28;20022;-74
2021/11/07 08:00:23;;;;;;;9.90;3.05;;;9.10;99.90;;;;;;4964433;28;20026;-72
2021/11/07 08:02:50;;;;;;;14.77;4.82;;;9.10;99.90;;;;;;4981448;28;20441;-70
2021/11/07 08:05:18;;;;;;;5.95;2.88;;;9.10;99.90;;;;;;4981538;28;20297;-69
2021/11/07 08:07:45;;;;;;;6.32;3.22;;;9.10;99.90;;;;;;4981999;28;20026;-69
2021/11/07 08:10:14;;;;;;;12.02;2.53;;;9.10;99.90;;;;;;4981385;28;20019;-68
2021/11/07 08:12:42;;;;;;;9.50;3.10;;;9.20;99.90;;;;;;4981599;28;20530;-68
2021/11/07 08:15:13;;;;;;;7.60;2.63;;;9.20;99.90;;;;;;4947679;28;20117;-77
2021/11/07 08:17:41;;;;;;;15.00;3.28;;;9.20;99.90;;;;;;4980309;28;20027;-77
2021/11/07 08:20:10;;;;;;;11.60;3.05;;;9.20;99.90;;;;;;4980242;28;20419;-78
2021/11/07 08:22:41;;;;;;;8.65;2.45;;;9.30;99.90;;;;;;4980460;28;20037;-78
2021/11/07 08:25:19;;;;;;;10.40;2.65;;;9.30;99.90;;;;;;4980632;28;20443;-68
2021/11/07 08:27:52;;;;;;;10.55;2.70;;;9.40;99.90;;;;;;4980221;28;20027;-68
2021/11/07 08:30:23;;;;;;;8.93;2.40;;;9.40;99.90;;;;;;4963006;28;20082;-69
2021/11/07 08:32:51;;;;;;;7.15;2.38;;;9.40;99.90;;;;;;4980574;28;20034;-69
2021/11/07 08:35:19;;;;;;;11.45;2.75;;;9.50;99.90;;;;;;4980494;28;20023;-68
2021/11/07 08:37:53;;;;;;;8.55;3.17;;;9.50;99.90;;;;;;4981026;28;20027;-69
2021/11/07 08:40:28;;;;;;;10.80;2.33;;;9.50;99.90;;;;;;4980917;28;20049;-69
2021/11/07 08:54:17;;;;;;;6.50;2.58;;;9.60;99.90;;;;;;4981261;28;20019;-68
2021/11/07 09:07:36;;;;;;;10.02;2.58;;;10.00;99.90;;;;;;4979762;28;20019;-68
2021/11/07 09:10:20;;;;;;;15.38;1.88;;;10.00;99.90;;;;;;4979645;28;20030;-68
2021/11/07 09:12:50;;;;;;;14.63;3.88;;;10.10;99.90;;;;;;4979340;28;20026;-68
2021/11/07 09:15:19;;;;;;;9.20;3.15;;;10.10;99.90;;;;;;4979436;28;20031;-68
2021/11/07 09:17:48;;;;;;;12.63;2.67;;;10.20;99.90;;;;;;4979801;28;20023;-68
2021/11/07 09:20:23;;;;;;;13.00;2.08;;;10.20;99.90;;;;;;4979985;28;20029;-68
2021/11/07 09:23:02;;;;;;;13.10;2.22;;;10.20;99.90;;;;;;4979821;28;20031;-68
2021/11/07 09:25:41;;;;;;;7.85;1.85;;;10.20;99.90;;;;;;4980418;28;20026;-68
2021/11/07 09:28:17;;;;;;;8.63;1.98;;;10.20;99.90;;;;;;4980465;28;20029;-68
2021/11/07 09:31:11;;;;;;;12.82;2.95;;;10.20;99.90;;;;;;4979761;28;20027;-68
2021/11/07 09:38:49;;;;;;;12.95;2.20;;;10.30;99.90;;;;;;4979753;28;20026;-67
2021/11/07 09:41:30;;;;;;;8.15;2.03;;;10.30;99.90;;;;;;4979128;28;20138;-68
2021/11/07 09:46:43;;;;;;;10.88;2.65;;;10.30;99.90;;;;;;4979152;28;20078;-68
2021/11/07 09:49:25;;;;;;;12.50;3.35;;;10.30;99.90;;;;;;4978406;28;20033;-67
2021/11/07 09:52:11;;;;;;;18.42;2.85;;;10.30;99.90;;;;;;4978604;28;20023;-68
2021/11/07 09:54:46;;;;;;;12.43;3.55;;;10.40;99.90;;;;;;4979407;28;20026;-68
2021/11/07 09:57:20;;;;;;;12.68;2.47;;;10.40;99.90;;;;;;4978542;28;20327;-68
2021/11/07 09:59:55;;;;;;;10.68;2.50;;;10.40;99.90;;;;;;4979307;28;20018;-68
2021/11/07 10:02:23;;;;;;;12.63;2.83;;;10.50;99.90;;;;;;4977430;28;20026;-68
2021/11/07 10:04:51;;;;;;;12.85;2.67;;;10.50;99.90;;;;;;4979148;28;20323;-68
2021/11/07 10:07:23;;;;;;;14.57;2.83;;;10.60;99.90;;;;;;4979226;28;20023;-68
2021/11/07 10:09:58;;;;;;;11.80;2.20;;;10.60;99.90;;;;;;4979431;28;20319;-68
2021/11/07 10:12:40;;;;;;;13.55;2.35;;;10.70;99.90;;;;;;4978858;28;20498;-68
2021/11/07 10:15:19;;;;;;;20.88;3.70;;;10.80;99.90;;;;;;4979404;28;20035;-68
2021/11/07 10:18:05;;;;;;;11.05;2.25;;;10.90;99.90;;;;;;4979084;28;20114;-68
2021/11/07 10:20:46;;;;;;;17.67;3.80;;;10.90;99.90;;;;;;4979731;28;20022;-68
2021/11/07 10:23:33;;;;;;;10.00;2.88;;;10.90;99.90;;;;;;4978277;28;20030;-69
2021/11/07 10:28:45;;;;;;;12.75;2.47;;;10.90;99.90;;;;;;4977986;28;20023;-68
2021/11/07 10:34:34;;;;;;;17.42;2.70;;;10.90;99.90;;;;;;4962222;28;20044;-68
2021/11/07 10:37:19;;;;;;;11.75;2.33;;;11.00;99.90;;;;;;4977730;28;20038;-68
2021/11/07 10:45:43;;;;;;;16.45;3.53;;;11.00;99.90;;;;;;4962365;28;20061;-68
2021/11/07 10:54:24;;;;;;;13.07;2.83;;;11.00;99.90;;;;;;4978632;28;20081;-68
2021/11/07 10:57:22;;;;;;;18.83;3.72;;;10.90;99.90;;;;;;4978844;28;20030;-68
2021/11/07 11:00:29;;;;;;;14.80;1.90;;;10.80;99.90;;;;;;4978879;28;20030;-68
2021/11/07 11:03:02;;;;;;;6.03;1.90;;;10.80;99.90;;;;;;4978301;28;20034;-68
2021/11/07 11:05:43;;;;;;;11.02;1.58;;;10.80;99.90;;;;;;4978207;28;20034;-68
2021/11/07 11:08:31;;;;;;;10.70;2.58;;;10.70;99.90;;;;;;4977305;28;20490;-68
2021/11/07 11:14:00;;;;;;;18.95;3.50;;;10.70;99.90;;;;;;4980284;28;20109;-67
2021/11/07 11:16:43;;;;;;;7.60;1.73;;;10.70;99.90;;;;;;4982028;28;20027;-67
2021/11/07 11:19:24;;;;;;;14.05;2.30;;;10.70;99.90;;;;;;4981361;28;20121;-68
2021/11/07 11:22:39;;;;;;;10.95;2.45;;;10.60;99.90;;;;;;4981113;28;20304;-69
2021/11/07 11:25:36;;;;;;;21.25;2.70;;;10.60;99.90;;;;;;4981223;28;20019;-68
2021/11/07 11:38:43;;;;;;;12.75;2.58;;;10.50;99.90;;;;;;4982273;28;20026;-68
2021/11/07 11:41:26;;;;;;;14.45;3.80;;;10.40;99.90;;;;;;4982063;28;20081;-68
2021/11/07 11:43:55;;;;;;;16.85;3.15;;;10.40;99.90;;;;;;4982017;28;20054;-69
2021/11/07 11:46:48;;;;;;;10.77;1.05;;;10.40;99.90;;;;;;4981924;28;20046;-69
2021/11/07 11:49:56;;;;;;;4.38;0.90;;;10.30;99.90;;;;;;4981221;28;20019;-69
2021/11/07 11:52:37;;;;;;;6.18;1.25;;;10.00;99.90;;;;;;4980559;28;20038;-69
2021/11/07 11:55:24;;;;;;;5.68;1.60;;;9.70;99.90;;;;;;4981442;28;20023;-69
2021/11/07 11:58:17;;;;;;;4.72;1.20;;;9.40;99.90;;;;;;4980769;28;20027;-69
2021/11/07 12:03:48;;;;;;;4.15;1.50;;;9.00;99.90;;;;;;4980850;28;20035;-69
2021/11/07 12:12:24;;;;;;;19.88;13.48;;;8.80;99.90;;;;;;4981654;28;20031;-68
2021/11/07 12:15:15;;;;;;;11.88;2.65;;;8.90;99.90;;;;;;4982183;28;20073;-68
2021/11/07 12:17:47;;;;;;;6.35;1.52;;;8.90;99.90;;;;;;4981341;28;20089;-68
2021/11/07 12:20:37;;;;;;;9.23;2.08;;;9.00;99.90;;;;;;4981402;28;20082;-68
2021/11/07 12:23:27;;;;;;;10.35;2.17;;;9.10;99.90;;;;;;4981152;28;20074;-68
2021/11/07 12:25:56;;;;;;;7.88;2.08;;;9.10;99.90;;;;;;4980808;28;20408;-68
2021/11/07 12:28:53;;;;;;;8.63;1.95;;;9.10;99.90;;;;;;4981150;28;20098;-68
2021/11/07 12:31:22;;;;;;;12.77;2.38;;;9.20;99.90;;;;;;4979503;28;20376;-68
2021/11/07 12:34:00;;;;;;;16.52;2.17;;;9.40;99.90;;;;;;4980106;28;20025;-68
2021/11/07 12:40:27;;;;;;;11.77;1.85;;;9.60;99.90;;;;;;4979894;28;20117;-68
2021/11/07 12:42:24;;;;;;;11.27;2.75;;;10.10;99.90;;;;;;4979908;28;20103;-68
2021/11/07 12:44:53;;;;;;;6.57;1.40;;;10.30;99.90;;;;;;4979715;28;20042;-68
2021/11/07 12:47:27;;;;;;;14.68;2.38;;;10.40;99.90;;;;;;4980449;28;20434;-68
2021/11/07 12:50:07;;;;;;;9.25;1.85;;;10.50;99.90;;;;;;4980045;28;20055;-68
2021/11/07 12:52:53;;;;;;;17.00;4.78;;;10.50;99.90;;;;;;4980352;28;20050;-69
2021/11/07 12:55:38;;;;;;;16.83;2.40;;;10.50;99.90;;;;;;4981517;28;20308;-68
2021/11/07 12:58:06;;;;;;;9.32;2.03;;;10.50;99.90;;;;;;4980532;28;20022;-68
2021/11/07 13:00:34;;;;;;;16.67;2.17;;;10.50;99.90;;;;;;4980611;28;20027;-68
2021/11/07 13:03:13;;;;;;;9.30;1.55;;;10.30;99.90;;;;;;4980593;28;20297;-68
2021/11/07 13:05:42;;;;;;;11.23;1.70;;;10.00;99.90;;;;;;4980509;28;20054;-68
2021/11/07 13:08:24;;;;;;;10.02;2.05;;;9.70;99.90;;;;;;4980396;28;20384;-68
2021/11/07 13:13:37;;;;;;;5.55;1.10;;;9.00;99.90;;;;;;4979685;28;20026;-69
2021/11/07 13:24:20;;;;;;;3.92;1.20;;;8.00;99.90;;;;;;4979208;28;20122;-69
2021/11/07 13:29:43;;;;;;;9.98;2.05;;;7.90;99.90;;;;;;4979205;28;20034;-68
2021/11/07 13:35:11;;;;;;;7.95;1.55;;;7.90;99.90;;;;;;4978999;28;20062;-70
2021/11/07 13:37:52;;;;;;;9.07;1.65;;;7.90;99.90;;;;;;4979768;28;20029;-69
2021/11/07 13:40:31;;;;;;;4.70;1.63;;;7.90;99.90;;;;;;4980192;28;20033;-69
2021/11/07 13:43:18;;;;;;;8.07;1.73;;;8.00;99.90;;;;;;4979636;28;20027;-69
2021/11/07 13:45:49;;;;;;;4.45;1.30;;;8.00;99.90;;;;;;4979676;28;20129;-69
2021/11/07 13:48:29;;;;;;;5.78;1.65;;;8.00;99.90;;;;;;4979575;28;20309;-69
2021/11/07 13:51:00;;;;;;;11.35;1.92;;;8.00;99.90;;;;;;4980295;28;20278;-69
2021/11/07 13:53:36;;;;;;;5.55;1.45;;;8.00;99.90;;;;;;4962416;28;20086;-69
2021/11/07 13:56:13;;;;;;;9.90;1.42;;;8.00;99.90;;;;;;4978750;28;20446;-69
2021/11/07 13:58:42;;;;;;;6.82;1.08;;;8.00;99.90;;;;;;4979074;28;20134;-68
2021/11/07 14:01:14;;;;;;;8.80;1.25;;;8.00;99.90;;;;;;4978599;28;20030;-69
2021/11/07 14:03:43;;;;;;;8.70;1.38;;;7.90;99.90;;;;;;4961220;28;20109;-69
2021/11/07 14:06:14;;;;;;;7.85;1.75;;;7.90;99.90;;;;;;4978541;28;20023;-68
2021/11/07 14:08:47;;;;;;;4.03;1.95;;;7.90;99.90;;;;;;4978879;28;20030;-69
2021/11/07 14:11:19;;;;;;;5.80;0.68;;;7.90;99.90;;;;;;4978340;28;20073;-69
2021/11/07 14:13:51;;;;;;;5.10;0.75;;;7.80;99.90;;;;;;4978836;28;20102;-68
2021/11/07 14:16:36;;;;;;;18.02;2.45;;;7.80;99.90;;;;;;4978327;28;20359;-69
2021/11/07 14:19:07;;;;;;;8.77;1.27;;;7.70;99.90;;;;;;4979116;28;20442;-68
2021/11/07 14:21:41;;;;;;;7.28;1.50;;;7.70;99.90;;;;;;4979282;28;20074;-68
2021/11/07 14:24:17;;;;;;;10.10;1.92;;;7.80;99.90;;;;;;4978837;28;20019;-69
2021/11/07 14:26:55;;;;;;;3.90;1.20;;;7.80;99.90;;;;;;4979027;28;20027;-69
2021/11/07 14:32:25;;;;;;;4.97;1.60;;;7.90;99.90;;;;;;4979194;28;20034;-69
2021/11/07 14:35:04;;;;;;;5.70;1.23;;;7.90;99.90;;;;;;4978717;28;20089;-68
2021/11/07 14:40:20;;;;;;;7.60;1.75;;;7.90;99.90;;;;;;4978218;28;20026;-68
2021/11/07 14:43:25;;;;;;;4.65;0.90;;;7.90;99.90;;;;;;4977556;28;20022;-68
2021/11/07 14:48:44;;;;;;;13.45;2.38;;;7.90;99.90;;;;;;4938830;29;20024;-68
2021/11/07 14:59:38;;;;;;;13.80;2.50;;;7.80;99.90;;;;;;4939560;29;20027;-69
2021/11/07 15:05:09;;;;;;;6.40;1.17;;;7.70;99.90;;;;;;4939997;29;20024;-69
2021/11/07 15:07:43;;;;;;;7.65;1.83;;;7.70;99.90;;;;;;4940802;29;20416;-69
2021/11/07 15:10:34;;;;;;;8.38;1.92;;;7.60;99.90;;;;;;4940762;29;20301;-69
2021/11/07 15:13:28;;;;;;;9.32;1.35;;;7.70;99.90;;;;;;4939843;29;20043;-69
2021/11/07 15:18:41;;;;;;;14.65;1.85;;;7.60;99.90;;;;;;4940121;29;20028;-69
2021/11/07 15:21:31;;;;;;;10.23;2.25;;;7.60;99.90;;;;;;4938317;29;20024;-69
2021/11/07 15:24:03;;;;;;;8.73;1.60;;;7.60;99.90;;;;;;4938918;29;20028;-69
2021/11/07 15:26:42;;;;;;;11.25;2.55;;;7.60;99.90;;;;;;4937882;29;20070;-69
2021/11/07 15:29:17;;;;;;;12.18;2.28;;;7.60;99.90;;;;;;4938876;29;20136;-69
2021/11/07 15:31:45;;;;;;;11.27;2.15;;;7.60;99.90;;;;;;4938391;29;20028;-69
2021/11/07 15:34:35;;;;;;;11.27;2.60;;;7.60;99.90;;;;;;4939002;29;20026;-69
2021/11/07 15:37:12;;;;;;;5.70;1.15;;;7.60;99.90;;;;;;4937489;29;20038;-68
2021/11/07 15:39:52;;;;;;;12.93;1.92;;;7.70;99.90;;;;;;4939560;29;20024;-68
2021/11/07 15:42:24;;;;;;;7.97;2.05;;;7.60;99.90;;;;;;4938763;29;20023;-69
2021/11/07 15:45:01;;;;;;;9.93;2.13;;;7.60;99.90;;;;;;4953846;29;20051;-69
2021/11/07 15:47:35;;;;;;;7.82;1.95;;;7.60;99.90;;;;;;4959047;28;20021;-68
2021/11/07 15:53:02;;;;;;;9.63;1.40;;;7.60;99.90;;;;;;4959096;29;20340;-68
2021/11/07 16:01:14;;;;;;;11.45;2.85;;;7.40;99.90;;;;;;4961641;28;20027;-68